sensor_id;sensor_type;location;lat;lon;timestamp;P1;durP1;ratioP1;P2;durP2;ratioP2
73264;SDS011;61493;51.008;14.088;2022-10-31T00:01:11;29.08;;;16.50;;
73264;SDS011;61493;51.008;14.088;2022-10-31T00:03:59;28.55;;;16.48;;
73264;SDS011;61493;51.008;14.088;2022-10-31T00:06:28;24.52;;;13.60;;
73264;SDS011;61493;51.008;14.088;2022-10-31T00:08:55;27.15;;;15.38;;
73264;SDS011;61493;51.008;14.088;2022-10-31T00:11:21;28.75;;;15.25;;
73264;SDS011;61493;51.008;14.088;2022-10-31T00:13:47;27.33;;;16.38;;
73264;SDS011;61493;51.008;14.088;2022-10-31T00:16:14;29.60;;;15.13;;
73264;SDS011;61493;51.008;14.088;2022-10-31T00:18:44;27.35;;;18.15;;
73264;SDS011;61493;51.008;14.088;2022-10-31T00:21:13;30.00;;;16.75;;
73264;SDS011;61493;51.008;14.088;2022-10-31T00:23:39;26.48;;;15.18;;
73264;SDS011;61493;51.008;14.088;2022-10-31T00:26:04;31.63;;;15.43;;
73264;SDS011;61493;51.008;14.088;2022-10-31T00:28:31;35.17;;;16.83;;
73264;SDS011;61493;51.008;14.088;2022-10-31T00:31:00;30.13;;;15.80;;
73264;SDS011;61493;51.008;14.088;2022-10-31T00:33:27;25.17;;;14.85;;
73264;SDS011;61493;51.008;14.088;2022-10-31T00:35:53;29.63;;;15.68;;
73264;SDS011;61493;51.008;14.088;2022-10-31T00:38:18;37.63;;;15.88;;
73264;SDS011;61493;51.008;14.088;2022-10-31T00:40:44;29.42;;;15.07;;
73264;SDS011;61493;51.008;14.088;2022-10-31T00:43:09;27.65;;;15.52;;
73264;SDS011;61493;51.008;14.088;2022-10-31T00:45:34;26.65;;;15.00;;
73264;SDS011;61493;51.008;14.088;2022-10-31T00:48:00;28.10;;;15.73;;
73264;SDS011;61493;51.008;14.088;2022-10-31T00:50:25;28.65;;;16.23;;
73264;SDS011;61493;51.008;14.088;2022-10-31T00:52:51;29.05;;;14.95;;
73264;SDS011;61493;51.008;14.088;2022-10-31T00:55:18;32.25;;;15.75;;
73264;SDS011;61493;51.008;14.088;2022-10-31T00:57:47;28.85;;;15.63;;
73264;SDS011;61493;51.008;14.088;2022-10-31T01:00:12;29.88;;;15.73;;
73264;SDS011;61493;51.008;14.088;2022-10-31T01:02:38;27.38;;;15.05;;
73264;SDS011;61493;51.008;14.088;2022-10-31T01:05:03;24.70;;;15.40;;
73264;SDS011;61493;51.008;14.088;2022-10-31T01:07:29;26.98;;;15.57;;
73264;SDS011;61493;51.008;14.088;2022-10-31T01:09:54;32.38;;;15.98;;
73264;SDS011;61493;51.008;14.088;2022-10-31T01:12:19;29.30;;;16.48;;
73264;SDS011;61493;51.008;14.088;2022-10-31T01:14:45;28.15;;;15.55;;
73264;SDS011;61493;51.008;14.088;2022-10-31T01:17:10;31.63;;;15.73;;
73264;SDS011;61493;51.008;14.088;2022-10-31T01:19:37;27.75;;;15.32;;
73264;SDS011;61493;51.008;14.088;2022-10-31T01:22:02;26.33;;;14.88;;
73264;SDS011;61493;51.008;14.088;2022-10-31T01:24:28;34.97;;;16.45;;
73264;SDS011;61493;51.008;14.088;2022-10-31T01:26:56;30.48;;;16.88;;
73264;SDS011;61493;51.008;14.088;2022-10-31T01:29:21;33.45;;;15.15;;
73264;SDS011;61493;51.008;14.088;2022-10-31T01:31:46;26.67;;;14.63;;
73264;SDS011;61493;51.008;14.088;2022-10-31T01:34:12;28.85;;;15.02;;
73264;SDS011;61493;51.008;14.088;2022-10-31T01:36:42;26.80;;;14.57;;
73264;SDS011;61493;51.008;14.088;2022-10-31T01:39:13;32.67;;;14.95;;
73264;SDS011;61493;51.008;14.088;2022-10-31T01:41:46;29.35;;;16.23;;
73264;SDS011;61493;51.008;14.088;2022-10-31T01:49:24;26.70;;;14.60;;
73264;SDS011;61493;51.008;14.088;2022-10-31T01:51:58;27.42;;;14.40;;
73264;SDS011;61493;51.008;14.088;2022-10-31T01:54:31;28.70;;;16.58;;
73264;SDS011;61493;51.008;14.088;2022-10-31T01:57:00;24.98;;;14.18;;
73264;SDS011;61493;51.008;14.088;2022-10-31T01:59:28;22.63;;;14.48;;
73264;SDS011;61493;51.008;14.088;2022-10-31T02:02:00;26.50;;;14.48;;
73264;SDS011;61493;51.008;14.088;2022-10-31T02:04:25;24.10;;;14.07;;
73264;SDS011;61493;51.008;14.088;2022-10-31T02:06:53;22.35;;;14.63;;
73264;SDS011;61493;51.008;14.088;2022-10-31T02:09:28;28.38;;;15.60;;
73264;SDS011;61493;51.008;14.088;2022-10-31T02:11:56;21.77;;;12.80;;
73264;SDS011;61493;51.008;14.088;2022-10-31T02:14:24;25.58;;;12.80;;
73264;SDS011;61493;51.008;14.088;2022-10-31T02:16:51;24.50;;;13.65;;
73264;SDS011;61493;51.008;14.088;2022-10-31T02:28:26;21.20;;;12.23;;
73264;SDS011;61493;51.008;14.088;2022-10-31T02:33:40;20.70;;;12.32;;
73264;SDS011;61493;51.008;14.088;2022-10-31T02:36:16;23.50;;;12.65;;
73264;SDS011;61493;51.008;14.088;2022-10-31T02:39:02;22.42;;;13.60;;
73264;SDS011;61493;51.008;14.088;2022-10-31T02:41:34;24.50;;;14.55;;
73264;SDS011;61493;51.008;14.088;2022-10-31T02:46:49;25.77;;;14.73;;
73264;SDS011;61493;51.008;14.088;2022-10-31T02:52:22;26.77;;;14.20;;
73264;SDS011;61493;51.008;14.088;2022-10-31T02:54:50;24.17;;;15.02;;
73264;SDS011;61493;51.008;14.088;2022-10-31T02:57:16;24.90;;;13.98;;
73264;SDS011;61493;51.008;14.088;2022-10-31T02:59:47;24.70;;;14.35;;
73264;SDS011;61493;51.008;14.088;2022-10-31T03:10:59;28.10;;;16.30;;
73264;SDS011;61493;51.008;14.088;2022-10-31T03:16:16;24.25;;;13.68;;
73264;SDS011;61493;51.008;14.088;2022-10-31T03:21:13;22.15;;;13.88;;
73264;SDS011;61493;51.008;14.088;2022-10-31T03:23:43;21.30;;;11.52;;
73264;SDS011;61493;51.008;14.088;2022-10-31T03:26:10;19.52;;;12.95;;
73264;SDS011;61493;51.008;14.088;2022-10-31T03:28:40;22.92;;;12.30;;
73264;SDS011;61493;51.008;14.088;2022-10-31T03:31:08;19.05;;;11.75;;
73264;SDS011;61493;51.008;14.088;2022-10-31T03:33:38;17.00;;;12.40;;
73264;SDS011;61493;51.008;14.088;2022-10-31T03:36:05;22.83;;;12.00;;
73264;SDS011;61493;51.008;14.088;2022-10-31T03:38:33;16.25;;;10.65;;
73264;SDS011;61493;51.008;14.088;2022-10-31T03:41:01;18.40;;;11.35;;
73264;SDS011;61493;51.008;14.088;2022-10-31T03:43:32;18.38;;;12.05;;
73264;SDS011;61493;51.008;14.088;2022-10-31T03:46:00;16.77;;;11.07;;
73264;SDS011;61493;51.008;14.088;2022-10-31T03:48:27;16.77;;;10.07;;
73264;SDS011;61493;51.008;14.088;2022-10-31T03:53:34;18.73;;;10.50;;
73264;SDS011;61493;51.008;14.088;2022-10-31T03:56:13;15.45;;;9.70;;
73264;SDS011;61493;51.008;14.088;2022-10-31T03:58:58;16.17;;;10.13;;
73264;SDS011;61493;51.008;14.088;2022-10-31T04:01:29;15.95;;;11.00;;
73264;SDS011;61493;51.008;14.088;2022-10-31T04:03:56;18.25;;;11.18;;
73264;SDS011;61493;51.008;14.088;2022-10-31T04:06:22;17.90;;;11.20;;
73264;SDS011;61493;51.008;14.088;2022-10-31T04:08:51;18.33;;;11.50;;
73264;SDS011;61493;51.008;14.088;2022-10-31T04:11:20;13.98;;;9.65;;
73264;SDS011;61493;51.008;14.088;2022-10-31T04:13:48;15.50;;;10.45;;
73264;SDS011;61493;51.008;14.088;2022-10-31T04:16:14;19.63;;;11.57;;
73264;SDS011;61493;51.008;14.088;2022-10-31T04:18:41;19.75;;;11.52;;
73264;SDS011;61493;51.008;14.088;2022-10-31T04:21:07;16.13;;;11.57;;
73264;SDS011;61493;51.008;14.088;2022-10-31T04:23:33;19.38;;;12.43;;
73264;SDS011;61493;51.008;14.088;2022-10-31T04:26:00;23.65;;;11.55;;
73264;SDS011;61493;51.008;14.088;2022-10-31T04:28:25;20.10;;;12.32;;
73264;SDS011;61493;51.008;14.088;2022-10-31T04:30:51;16.05;;;11.05;;
73264;SDS011;61493;51.008;14.088;2022-10-31T04:33:17;25.13;;;13.68;;
73264;SDS011;61493;51.008;14.088;2022-10-31T04:35:43;18.63;;;12.55;;
73264;SDS011;61493;51.008;14.088;2022-10-31T04:38:08;25.17;;;14.07;;
73264;SDS011;61493;51.008;14.088;2022-10-31T04:40:33;21.33;;;12.70;;
73264;SDS011;61493;51.008;14.088;2022-10-31T04:42:59;20.20;;;12.32;;
73264;SDS011;61493;51.008;14.088;2022-10-31T04:45:24;20.48;;;11.68;;
73264;SDS011;61493;51.008;14.088;2022-10-31T04:47:50;18.55;;;11.98;;
73264;SDS011;61493;51.008;14.088;2022-10-31T04:50:15;18.67;;;11.25;;
73264;SDS011;61493;51.008;14.088;2022-10-31T04:52:41;20.08;;;12.02;;
73264;SDS011;61493;51.008;14.088;2022-10-31T04:55:09;16.15;;;10.18;;
73264;SDS011;61493;51.008;14.088;2022-10-31T04:57:42;20.48;;;11.55;;
73264;SDS011;61493;51.008;14.088;2022-10-31T05:00:09;18.30;;;12.15;;
73264;SDS011;61493;51.008;14.088;2022-10-31T05:03:09;17.92;;;10.55;;
73264;SDS011;61493;51.008;14.088;2022-10-31T05:05:29;19.25;;;12.63;;
73264;SDS011;61493;51.008;14.088;2022-10-31T05:07:55;16.80;;;11.00;;
73264;SDS011;61493;51.008;14.088;2022-10-31T05:10:22;16.60;;;11.30;;
73264;SDS011;61493;51.008;14.088;2022-10-31T05:12:53;16.00;;;10.68;;
73264;SDS011;61493;51.008;14.088;2022-10-31T05:15:23;15.70;;;10.95;;
73264;SDS011;61493;51.008;14.088;2022-10-31T05:17:50;17.05;;;11.45;;
73264;SDS011;61493;51.008;14.088;2022-10-31T05:20:16;15.45;;;10.75;;
73264;SDS011;61493;51.008;14.088;2022-10-31T05:22:43;18.38;;;11.52;;
73264;SDS011;61493;51.008;14.088;2022-10-31T05:25:13;16.42;;;10.65;;
73264;SDS011;61493;51.008;14.088;2022-10-31T05:27:39;18.08;;;10.52;;
73264;SDS011;61493;51.008;14.088;2022-10-31T05:30:09;16.77;;;10.68;;
73264;SDS011;61493;51.008;14.088;2022-10-31T05:32:42;17.55;;;10.57;;
73264;SDS011;61493;51.008;14.088;2022-10-31T05:35:10;20.65;;;11.63;;
73264;SDS011;61493;51.008;14.088;2022-10-31T05:37:40;20.02;;;12.75;;
73264;SDS011;61493;51.008;14.088;2022-10-31T05:40:07;16.63;;;11.43;;
73264;SDS011;61493;51.008;14.088;2022-10-31T05:42:34;19.10;;;11.65;;
73264;SDS011;61493;51.008;14.088;2022-10-31T05:44:59;16.65;;;11.68;;
73264;SDS011;61493;51.008;14.088;2022-10-31T05:47:25;19.52;;;12.25;;
73264;SDS011;61493;51.008;14.088;2022-10-31T05:49:50;16.58;;;11.73;;
73264;SDS011;61493;51.008;14.088;2022-10-31T05:52:19;19.50;;;12.23;;
73264;SDS011;61493;51.008;14.088;2022-10-31T05:54:44;17.17;;;11.82;;
73264;SDS011;61493;51.008;14.088;2022-10-31T05:57:10;17.63;;;11.07;;
73264;SDS011;61493;51.008;14.088;2022-10-31T05:59:35;20.08;;;11.68;;
73264;SDS011;61493;51.008;14.088;2022-10-31T06:02:00;14.57;;;10.38;;
73264;SDS011;61493;51.008;14.088;2022-10-31T06:04:26;19.20;;;10.85;;
73264;SDS011;61493;51.008;14.088;2022-10-31T06:06:51;21.08;;;11.63;;
73264;SDS011;61493;51.008;14.088;2022-10-31T06:09:17;15.68;;;10.27;;
73264;SDS011;61493;51.008;14.088;2022-10-31T06:11:42;13.50;;;9.95;;
73264;SDS011;61493;51.008;14.088;2022-10-31T06:14:07;14.68;;;9.38;;
73264;SDS011;61493;51.008;14.088;2022-10-31T06:16:32;12.52;;;9.35;;
73264;SDS011;61493;51.008;14.088;2022-10-31T06:19:01;19.48;;;11.27;;
73264;SDS011;61493;51.008;14.088;2022-10-31T06:21:26;18.10;;;11.05;;
73264;SDS011;61493;51.008;14.088;2022-10-31T06:23:51;13.90;;;9.68;;
73264;SDS011;61493;51.008;14.088;2022-10-31T06:26:17;14.80;;;9.88;;
73264;SDS011;61493;51.008;14.088;2022-10-31T06:28:42;14.80;;;9.35;;
73264;SDS011;61493;51.008;14.088;2022-10-31T06:31:07;14.75;;;10.07;;
73264;SDS011;61493;51.008;14.088;2022-10-31T06:33:36;15.93;;;10.88;;
73264;SDS011;61493;51.008;14.088;2022-10-31T06:36:01;22.08;;;12.90;;
73264;SDS011;61493;51.008;14.088;2022-10-31T06:38:27;17.85;;;11.80;;
73264;SDS011;61493;51.008;14.088;2022-10-31T06:40:53;27.17;;;15.27;;
73264;SDS011;61493;51.008;14.088;2022-10-31T06:43:19;30.92;;;15.73;;
73264;SDS011;61493;51.008;14.088;2022-10-31T06:45:45;23.30;;;14.23;;
73264;SDS011;61493;51.008;14.088;2022-10-31T06:48:10;20.98;;;13.18;;
73264;SDS011;61493;51.008;14.088;2022-10-31T06:50:35;28.00;;;16.00;;
73264;SDS011;61493;51.008;14.088;2022-10-31T06:53:01;23.08;;;15.10;;
73264;SDS011;61493;51.008;14.088;2022-10-31T06:55:26;21.00;;;13.52;;
73264;SDS011;61493;51.008;14.088;2022-10-31T06:57:52;26.30;;;11.85;;
73264;SDS011;61493;51.008;14.088;2022-10-31T07:00:18;19.05;;;11.70;;
73264;SDS011;61493;51.008;14.088;2022-10-31T07:02:52;15.32;;;10.00;;
73264;SDS011;61493;51.008;14.088;2022-10-31T07:05:18;14.35;;;9.27;;
73264;SDS011;61493;51.008;14.088;2022-10-31T07:07:43;15.35;;;10.35;;
73264;SDS011;61493;51.008;14.088;2022-10-31T07:10:09;13.90;;;9.70;;
73264;SDS011;61493;51.008;14.088;2022-10-31T07:12:34;16.02;;;9.32;;
73264;SDS011;61493;51.008;14.088;2022-10-31T07:14:59;13.90;;;8.45;;
73264;SDS011;61493;51.008;14.088;2022-10-31T07:17:25;11.02;;;8.88;;
73264;SDS011;61493;51.008;14.088;2022-10-31T07:19:50;13.02;;;8.95;;
73264;SDS011;61493;51.008;14.088;2022-10-31T07:22:15;16.33;;;10.25;;
73264;SDS011;61493;51.008;14.088;2022-10-31T07:24:40;14.45;;;9.07;;
73264;SDS011;61493;51.008;14.088;2022-10-31T07:27:06;12.77;;;8.90;;
73264;SDS011;61493;51.008;14.088;2022-10-31T07:29:34;14.60;;;8.68;;
73264;SDS011;61493;51.008;14.088;2022-10-31T07:31:59;14.02;;;9.00;;
73264;SDS011;61493;51.008;14.088;2022-10-31T07:34:25;18.75;;;8.88;;
73264;SDS011;61493;51.008;14.088;2022-10-31T07:36:50;12.60;;;7.35;;
73264;SDS011;61493;51.008;14.088;2022-10-31T07:39:19;12.63;;;8.05;;
73264;SDS011;61493;51.008;14.088;2022-10-31T07:41:44;13.95;;;9.40;;
73264;SDS011;61493;51.008;14.088;2022-10-31T07:44:09;13.70;;;9.43;;
73264;SDS011;61493;51.008;14.088;2022-10-31T07:46:34;10.93;;;7.97;;
73264;SDS011;61493;51.008;14.088;2022-10-31T07:49:00;11.00;;;7.40;;
73264;SDS011;61493;51.008;14.088;2022-10-31T07:51:25;12.27;;;7.30;;
73264;SDS011;61493;51.008;14.088;2022-10-31T07:53:51;10.43;;;6.57;;
73264;SDS011;61493;51.008;14.088;2022-10-31T07:56:17;9.52;;;7.78;;
73264;SDS011;61493;51.008;14.088;2022-10-31T07:58:42;10.60;;;7.47;;
73264;SDS011;61493;51.008;14.088;2022-10-31T08:01:08;8.23;;;6.32;;
73264;SDS011;61493;51.008;14.088;2022-10-31T08:03:33;12.98;;;7.95;;
73264;SDS011;61493;51.008;14.088;2022-10-31T08:05:58;11.27;;;7.85;;
73264;SDS011;61493;51.008;14.088;2022-10-31T08:08:29;9.70;;;7.10;;
73264;SDS011;61493;51.008;14.088;2022-10-31T08:10:54;11.40;;;7.72;;
73264;SDS011;61493;51.008;14.088;2022-10-31T08:13:20;11.15;;;7.15;;
73264;SDS011;61493;51.008;14.088;2022-10-31T08:15:45;11.57;;;6.60;;
73264;SDS011;61493;51.008;14.088;2022-10-31T08:18:15;8.35;;;5.97;;
73264;SDS011;61493;51.008;14.088;2022-10-31T08:20:41;6.78;;;5.78;;
73264;SDS011;61493;51.008;14.088;2022-10-31T08:23:11;14.75;;;6.63;;
73264;SDS011;61493;51.008;14.088;2022-10-31T08:25:40;39.45;;;21.45;;
73264;SDS011;61493;51.008;14.088;2022-10-31T08:28:08;15.80;;;10.05;;
73264;SDS011;61493;51.008;14.088;2022-10-31T08:30:41;12.27;;;9.10;;
73264;SDS011;61493;51.008;14.088;2022-10-31T08:33:14;8.70;;;6.72;;
73264;SDS011;61493;51.008;14.088;2022-10-31T08:35:41;12.13;;;6.10;;
73264;SDS011;61493;51.008;14.088;2022-10-31T08:38:11;9.40;;;5.88;;
73264;SDS011;61493;51.008;14.088;2022-10-31T08:40:38;7.13;;;4.68;;
73264;SDS011;61493;51.008;14.088;2022-10-31T08:43:05;9.02;;;5.88;;
73264;SDS011;61493;51.008;14.088;2022-10-31T08:45:33;8.52;;;6.15;;
73264;SDS011;61493;51.008;14.088;2022-10-31T08:48:03;8.05;;;5.72;;
73264;SDS011;61493;51.008;14.088;2022-10-31T08:50:30;7.60;;;5.60;;
73264;SDS011;61493;51.008;14.088;2022-10-31T08:53:03;7.78;;;5.50;;
73264;SDS011;61493;51.008;14.088;2022-10-31T08:55:30;6.90;;;5.30;;
73264;SDS011;61493;51.008;14.088;2022-10-31T08:57:56;10.82;;;5.40;;
73264;SDS011;61493;51.008;14.088;2022-10-31T09:00:22;6.90;;;4.50;;
73264;SDS011;61493;51.008;14.088;2022-10-31T09:02:48;8.32;;;4.63;;
73264;SDS011;61493;51.008;14.088;2022-10-31T09:05:20;6.90;;;4.83;;
73264;SDS011;61493;51.008;14.088;2022-10-31T09:07:48;9.05;;;4.97;;
73264;SDS011;61493;51.008;14.088;2022-10-31T09:10:13;7.00;;;4.57;;
73264;SDS011;61493;51.008;14.088;2022-10-31T09:12:38;6.30;;;4.10;;
73264;SDS011;61493;51.008;14.088;2022-10-31T09:15:04;6.32;;;4.00;;
73264;SDS011;61493;51.008;14.088;2022-10-31T09:17:31;8.32;;;5.30;;
73264;SDS011;61493;51.008;14.088;2022-10-31T09:19:56;6.45;;;4.88;;
73264;SDS011;61493;51.008;14.088;2022-10-31T09:22:25;8.77;;;4.35;;
73264;SDS011;61493;51.008;14.088;2022-10-31T09:24:50;5.55;;;4.05;;
73264;SDS011;61493;51.008;14.088;2022-10-31T09:27:15;7.03;;;4.43;;
73264;SDS011;61493;51.008;14.088;2022-10-31T09:29:41;6.28;;;4.15;;
73264;SDS011;61493;51.008;14.088;2022-10-31T09:32:06;7.95;;;4.10;;
73264;SDS011;61493;51.008;14.088;2022-10-31T09:34:31;7.10;;;4.53;;
73264;SDS011;61493;51.008;14.088;2022-10-31T09:36:57;6.03;;;3.83;;
73264;SDS011;61493;51.008;14.088;2022-10-31T09:39:22;8.63;;;3.88;;
73264;SDS011;61493;51.008;14.088;2022-10-31T09:50:38;6.43;;;3.67;;
73264;SDS011;61493;51.008;14.088;2022-10-31T09:53:10;6.95;;;3.25;;
73264;SDS011;61493;51.008;14.088;2022-10-31T09:55:50;5.45;;;3.80;;
73264;SDS011;61493;51.008;14.088;2022-10-31T09:58:20;10.07;;;4.97;;
73264;SDS011;61493;51.008;14.088;2022-10-31T10:08:26;5.93;;;3.43;;
73264;SDS011;61493;51.008;14.088;2022-10-31T10:13:38;6.07;;;3.33;;
73264;SDS011;61493;51.008;14.088;2022-10-31T10:30:00;6.53;;;3.83;;
73264;SDS011;61493;51.008;14.088;2022-10-31T10:32:54;7.25;;;3.40;;
73264;SDS011;61493;51.008;14.088;2022-10-31T10:35:27;6.00;;;3.80;;
73264;SDS011;61493;51.008;14.088;2022-10-31T10:37:57;9.65;;;3.58;;
73264;SDS011;61493;51.008;14.088;2022-10-31T10:40:40;7.18;;;3.05;;
73264;SDS011;61493;51.008;14.088;2022-10-31T10:51:58;6.65;;;3.60;;
73264;SDS011;61493;51.008;14.088;2022-10-31T10:56:59;8.27;;;4.10;;
73264;SDS011;61493;51.008;14.088;2022-10-31T10:59:45;8.10;;;4.20;;
73264;SDS011;61493;51.008;14.088;2022-10-31T11:02:18;7.93;;;4.20;;
73264;SDS011;61493;51.008;14.088;2022-10-31T11:04:51;7.30;;;3.35;;
73264;SDS011;61493;51.008;14.088;2022-10-31T11:07:19;11.05;;;3.72;;
73264;SDS011;61493;51.008;14.088;2022-10-31T11:09:45;9.75;;;4.93;;
73264;SDS011;61493;51.008;14.088;2022-10-31T11:12:17;8.40;;;4.05;;
73264;SDS011;61493;51.008;14.088;2022-10-31T11:14:51;8.60;;;4.43;;
73264;SDS011;61493;51.008;14.088;2022-10-31T11:17:29;6.35;;;3.85;;
73264;SDS011;61493;51.008;14.088;2022-10-31T11:20:25;6.68;;;3.88;;
73264;SDS011;61493;51.008;14.088;2022-10-31T11:23:00;8.98;;;3.92;;
73264;SDS011;61493;51.008;14.088;2022-10-31T11:25:27;11.65;;;3.95;;
73264;SDS011;61493;51.008;14.088;2022-10-31T11:28:06;6.50;;;3.50;;
73264;SDS011;61493;51.008;14.088;2022-10-31T11:30:45;6.97;;;3.40;;
73264;SDS011;61493;51.008;14.088;2022-10-31T11:35:57;9.05;;;4.50;;
73264;SDS011;61493;51.008;14.088;2022-10-31T11:38:26;6.35;;;3.45;;
73264;SDS011;61493;51.008;14.088;2022-10-31T11:40:59;4.90;;;3.22;;
73264;SDS011;61493;51.008;14.088;2022-10-31T11:43:33;9.20;;;3.70;;
73264;SDS011;61493;51.008;14.088;2022-10-31T11:45:59;6.00;;;3.40;;
73264;SDS011;61493;51.008;14.088;2022-10-31T11:48:24;7.07;;;3.70;;
73264;SDS011;61493;51.008;14.088;2022-10-31T11:50:57;7.30;;;3.53;;
73264;SDS011;61493;51.008;14.088;2022-10-31T11:53:27;7.03;;;4.00;;
73264;SDS011;61493;51.008;14.088;2022-10-31T11:56:13;8.50;;;3.53;;
73264;SDS011;61493;51.008;14.088;2022-10-31T11:58:43;8.38;;;3.70;;
73264;SDS011;61493;51.008;14.088;2022-10-31T12:08:51;8.77;;;4.22;;
73264;SDS011;61493;51.008;14.088;2022-10-31T12:11:22;5.22;;;3.33;;
73264;SDS011;61493;51.008;14.088;2022-10-31T12:13:59;7.60;;;3.80;;
73264;SDS011;61493;51.008;14.088;2022-10-31T12:16:45;11.27;;;4.65;;
73264;SDS011;61493;51.008;14.088;2022-10-31T12:22:13;8.05;;;4.00;;
73264;SDS011;61493;51.008;14.088;2022-10-31T12:30:37;8.00;;;3.63;;
73264;SDS011;61493;51.008;14.088;2022-10-31T12:41:24;8.30;;;3.35;;
73264;SDS011;61493;51.008;14.088;2022-10-31T12:44:06;7.20;;;3.67;;
73264;SDS011;61493;51.008;14.088;2022-10-31T12:52:15;8.73;;;3.42;;
73264;SDS011;61493;51.008;14.088;2022-10-31T12:57:45;7.10;;;3.40;;
73264;SDS011;61493;51.008;14.088;2022-10-31T13:00:16;9.73;;;3.80;;
73264;SDS011;61493;51.008;14.088;2022-10-31T13:02:56;18.13;;;4.40;;
73264;SDS011;61493;51.008;14.088;2022-10-31T13:05:44;6.15;;;3.00;;
73264;SDS011;61493;51.008;14.088;2022-10-31T13:11:06;6.60;;;3.25;;
73264;SDS011;61493;51.008;14.088;2022-10-31T13:16:14;6.38;;;3.50;;
73264;SDS011;61493;51.008;14.088;2022-10-31T13:21:51;9.50;;;3.80;;
73264;SDS011;61493;51.008;14.088;2022-10-31T13:24:22;7.53;;;3.08;;
73264;SDS011;61493;51.008;14.088;2022-10-31T13:26:56;7.57;;;3.50;;
73264;SDS011;61493;51.008;14.088;2022-10-31T13:32:04;8.02;;;3.45;;
73264;SDS011;61493;51.008;14.088;2022-10-31T13:35:04;5.68;;;3.13;;
73264;SDS011;61493;51.008;14.088;2022-10-31T13:37:35;5.18;;;3.38;;
73264;SDS011;61493;51.008;14.088;2022-10-31T13:42:50;8.93;;;3.72;;
73264;SDS011;61493;51.008;14.088;2022-10-31T13:45:22;7.47;;;3.55;;
73264;SDS011;61493;51.008;14.088;2022-10-31T13:47:59;5.95;;;3.17;;
73264;SDS011;61493;51.008;14.088;2022-10-31T13:50:40;5.50;;;2.85;;
73264;SDS011;61493;51.008;14.088;2022-10-31T13:55:47;6.10;;;3.30;;
73264;SDS011;61493;51.008;14.088;2022-10-31T13:58:28;7.97;;;3.00;;
73264;SDS011;61493;51.008;14.088;2022-10-31T14:01:11;6.88;;;2.78;;
73264;SDS011;61493;51.008;14.088;2022-10-31T14:03:53;4.82;;;2.50;;
73264;SDS011;61493;51.008;14.088;2022-10-31T14:06:22;7.15;;;3.10;;
73264;SDS011;61493;51.008;14.088;2022-10-31T14:08:59;6.97;;;2.97;;
73264;SDS011;61493;51.008;14.088;2022-10-31T14:11:26;7.55;;;3.20;;
73264;SDS011;61493;51.008;14.088;2022-10-31T14:13:54;8.63;;;3.15;;
73264;SDS011;61493;51.008;14.088;2022-10-31T14:19:02;6.50;;;3.75;;
73264;SDS011;61493;51.008;14.088;2022-10-31T14:21:41;7.38;;;3.53;;
73264;SDS011;61493;51.008;14.088;2022-10-31T14:26:53;6.82;;;3.33;;
73264;SDS011;61493;51.008;14.088;2022-10-31T14:29:39;9.65;;;3.22;;
73264;SDS011;61493;51.008;14.088;2022-10-31T14:34:37;5.05;;;3.00;;
73264;SDS011;61493;51.008;14.088;2022-10-31T14:50:45;8.57;;;3.33;;
73264;SDS011;61493;51.008;14.088;2022-10-31T14:53:16;7.93;;;3.10;;
73264;SDS011;61493;51.008;14.088;2022-10-31T14:55:49;8.57;;;3.72;;
73264;SDS011;61493;51.008;14.088;2022-10-31T14:58:35;8.02;;;3.42;;
73264;SDS011;61493;51.008;14.088;2022-10-31T15:01:03;5.88;;;3.60;;
73264;SDS011;61493;51.008;14.088;2022-10-31T15:03:36;8.32;;;3.63;;
73264;SDS011;61493;51.008;14.088;2022-10-31T15:06:14;8.60;;;3.03;;
73264;SDS011;61493;51.008;14.088;2022-10-31T15:08:49;5.47;;;3.17;;
73264;SDS011;61493;51.008;14.088;2022-10-31T15:11:17;6.30;;;3.13;;
73264;SDS011;61493;51.008;14.088;2022-10-31T15:14:05;6.97;;;3.45;;
73264;SDS011;61493;51.008;14.088;2022-10-31T15:16:42;7.72;;;3.10;;
73264;SDS011;61493;51.008;14.088;2022-10-31T15:19:10;8.50;;;3.75;;
73264;SDS011;61493;51.008;14.088;2022-10-31T15:21:43;8.32;;;3.55;;
73264;SDS011;61493;51.008;14.088;2022-10-31T15:24:11;9.93;;;3.90;;
73264;SDS011;61493;51.008;14.088;2022-10-31T15:26:43;6.93;;;3.30;;
73264;SDS011;61493;51.008;14.088;2022-10-31T15:29:20;7.60;;;3.67;;
73264;SDS011;61493;51.008;14.088;2022-10-31T15:34:22;6.57;;;3.72;;
73264;SDS011;61493;51.008;14.088;2022-10-31T15:37:11;6.93;;;2.70;;
73264;SDS011;61493;51.008;14.088;2022-10-31T15:39:38;7.07;;;3.72;;
73264;SDS011;61493;51.008;14.088;2022-10-31T15:42:04;13.55;;;7.65;;
73264;SDS011;61493;51.008;14.088;2022-10-31T15:47:56;8.35;;;4.22;;
73264;SDS011;61493;51.008;14.088;2022-10-31T15:50:31;12.75;;;4.38;;
73264;SDS011;61493;51.008;14.088;2022-10-31T15:53:00;6.90;;;3.50;;
73264;SDS011;61493;51.008;14.088;2022-10-31T15:55:27;8.13;;;4.25;;
73264;SDS011;61493;51.008;14.088;2022-10-31T15:58:01;8.00;;;5.40;;
73264;SDS011;61493;51.008;14.088;2022-10-31T16:00:36;6.85;;;4.43;;
73264;SDS011;61493;51.008;14.088;2022-10-31T16:03:07;11.70;;;5.45;;
73264;SDS011;61493;51.008;14.088;2022-10-31T16:05:44;12.10;;;7.38;;
73264;SDS011;61493;51.008;14.088;2022-10-31T16:08:48;9.77;;;5.85;;
73264;SDS011;61493;51.008;14.088;2022-10-31T16:14:02;7.50;;;4.90;;
73264;SDS011;61493;51.008;14.088;2022-10-31T16:16:39;8.07;;;4.75;;
73264;SDS011;61493;51.008;14.088;2022-10-31T16:19:12;7.22;;;3.85;;
73264;SDS011;61493;51.008;14.088;2022-10-31T16:22:13;8.57;;;4.30;;
73264;SDS011;61493;51.008;14.088;2022-10-31T16:24:45;17.00;;;8.05;;
73264;SDS011;61493;51.008;14.088;2022-10-31T16:27:20;17.55;;;10.05;;
73264;SDS011;61493;51.008;14.088;2022-10-31T16:29:50;20.70;;;12.60;;
73264;SDS011;61493;51.008;14.088;2022-10-31T16:35:27;14.55;;;10.70;;
73264;SDS011;61493;51.008;14.088;2022-10-31T16:38:00;10.38;;;7.18;;
73264;SDS011;61493;51.008;14.088;2022-10-31T16:40:25;10.80;;;6.60;;
73264;SDS011;61493;51.008;14.088;2022-10-31T16:42:51;10.85;;;7.32;;
73264;SDS011;61493;51.008;14.088;2022-10-31T16:45:18;11.80;;;5.88;;
73264;SDS011;61493;51.008;14.088;2022-10-31T16:47:45;11.35;;;5.90;;
73264;SDS011;61493;51.008;14.088;2022-10-31T16:50:12;9.10;;;5.30;;
73264;SDS011;61493;51.008;14.088;2022-10-31T16:52:49;12.43;;;6.03;;
73264;SDS011;61493;51.008;14.088;2022-10-31T16:55:14;9.65;;;5.50;;
73264;SDS011;61493;51.008;14.088;2022-10-31T16:57:42;9.02;;;5.70;;
73264;SDS011;61493;51.008;14.088;2022-10-31T17:00:17;13.32;;;5.57;;
73264;SDS011;61493;51.008;14.088;2022-10-31T17:02:44;10.85;;;5.82;;
73264;SDS011;61493;51.008;14.088;2022-10-31T17:05:11;12.20;;;5.90;;
73264;SDS011;61493;51.008;14.088;2022-10-31T17:07:38;9.90;;;6.85;;
73264;SDS011;61493;51.008;14.088;2022-10-31T17:10:04;9.85;;;6.13;;
73264;SDS011;61493;51.008;14.088;2022-10-31T17:12:30;10.48;;;6.22;;
73264;SDS011;61493;51.008;14.088;2022-10-31T17:14:55;13.77;;;7.30;;
73264;SDS011;61493;51.008;14.088;2022-10-31T17:17:21;20.98;;;10.80;;
73264;SDS011;61493;51.008;14.088;2022-10-31T17:19:46;13.73;;;8.55;;
73264;SDS011;61493;51.008;14.088;2022-10-31T17:22:12;11.32;;;7.25;;
73264;SDS011;61493;51.008;14.088;2022-10-31T17:24:38;10.52;;;6.07;;